sensor_id;sensor_type;location;lat;lon;timestamp;noise_LAeq;noise_LA_min;noise_LA_max;noise_LA01;noise_LA95
61270;Laerm;47150;53.032;8.960;2023-05-07T00:00:08;38.95;37.74;40.09;;
61270;Laerm;47150;53.032;8.960;2023-05-07T00:02:34;38.94;37.67;40.04;;
61270;Laerm;47150;53.032;8.960;2023-05-07T00:05:00;38.96;37.55;40.34;;
61270;Laerm;47150;53.032;8.960;2023-05-07T00:07:27;38.95;37.72;40.10;;
61270;Laerm;47150;53.032;8.960;2023-05-07T00:09:52;38.95;37.72;40.19;;
61270;Laerm;47150;53.032;8.960;2023-05-07T00:12:18;38.97;37.35;40.09;;
61270;Laerm;47150;53.032;8.960;2023-05-07T00:14:43;38.96;37.67;40.18;;
61270;Laerm;47150;53.032;8.960;2023-05-07T00:17:08;38.96;37.71;40.13;;
61270;Laerm;47150;53.032;8.960;2023-05-07T00:19:34;38.96;37.55;40.18;;
61270;Laerm;47150;53.032;8.960;2023-05-07T00:21:59;38.96;37.44;40.18;;
61270;Laerm;47150;53.032;8.960;2023-05-07T00:24:25;38.96;37.58;40.42;;
61270;Laerm;47150;53.032;8.960;2023-05-07T00:26:50;38.98;37.67;40.23;;
61270;Laerm;47150;53.032;8.960;2023-05-07T00:29:16;38.98;37.76;40.25;;
61270;Laerm;47150;53.032;8.960;2023-05-07T00:31:41;38.98;37.45;40.16;;
61270;Laerm;47150;53.032;8.960;2023-05-07T00:34:07;38.99;37.70;40.02;;
61270;Laerm;47150;53.032;8.960;2023-05-07T00:36:32;38.99;37.74;40.36;;
61270;Laerm;47150;53.032;8.960;2023-05-07T00:38:59;38.99;37.59;40.21;;
61270;Laerm;47150;53.032;8.960;2023-05-07T00:41:25;38.99;37.62;40.40;;
61270;Laerm;47150;53.032;8.960;2023-05-07T00:43:51;38.99;37.85;40.27;;
61270;Laerm;47150;53.032;8.960;2023-05-07T00:46:20;39.00;37.87;40.22;;
61270;Laerm;47150;53.032;8.960;2023-05-07T00:48:46;39.00;37.77;40.27;;
61270;Laerm;47150;53.032;8.960;2023-05-07T00:51:12;39.01;37.73;40.19;;
61270;Laerm;47150;53.032;8.960;2023-05-07T00:53:38;39.01;37.74;40.38;;
61270;Laerm;47150;53.032;8.960;2023-05-07T00:56:04;39.02;37.70;40.26;;
61270;Laerm;47150;53.032;8.960;2023-05-07T00:58:32;39.03;37.64;40.24;;
61270;Laerm;47150;53.032;8.960;2023-05-07T01:00:57;39.02;37.25;40.27;;
61270;Laerm;47150;53.032;8.960;2023-05-07T01:03:23;39.05;37.85;40.24;;
61270;Laerm;47150;53.032;8.960;2023-05-07T01:05:50;39.04;37.59;40.29;;
61270;Laerm;47150;53.032;8.960;2023-05-07T01:08:16;39.05;37.55;40.35;;
61270;Laerm;47150;53.032;8.960;2023-05-07T01:10:43;39.05;37.73;40.46;;
61270;Laerm;47150;53.032;8.960;2023-05-07T01:13:09;39.04;37.71;40.26;;
61270;Laerm;47150;53.032;8.960;2023-05-07T01:15:36;39.04;37.89;40.20;;
61270;Laerm;47150;53.032;8.960;2023-05-07T01:18:01;39.04;37.58;40.23;;
61270;Laerm;47150;53.032;8.960;2023-05-07T01:20:28;39.04;37.95;40.30;;
61270;Laerm;47150;53.032;8.960;2023-05-07T01:22:53;39.03;37.78;40.25;;
61270;Laerm;47150;53.032;8.960;2023-05-07T01:25:20;39.05;37.80;40.31;;
61270;Laerm;47150;53.032;8.960;2023-05-07T01:27:45;39.06;37.69;40.51;;
61270;Laerm;47150;53.032;8.960;2023-05-07T01:30:11;39.07;37.54;40.46;;
61270;Laerm;47150;53.032;8.960;2023-05-07T01:33:03;39.07;37.44;40.66;;
61270;Laerm;47150;53.032;8.960;2023-05-07T01:35:34;39.07;37.74;40.65;;
61270;Laerm;47150;53.032;8.960;2023-05-07T01:38:00;39.07;37.54;40.29;;
61270;Laerm;47150;53.032;8.960;2023-05-07T01:40:29;39.08;37.81;40.56;;
61270;Laerm;47150;53.032;8.960;2023-05-07T01:42:55;39.07;37.78;40.42;;
61270;Laerm;47150;53.032;8.960;2023-05-07T01:45:21;39.08;37.85;40.22;;
61270;Laerm;47150;53.032;8.960;2023-05-07T01:47:46;39.08;37.45;40.54;;
61270;Laerm;47150;53.032;8.960;2023-05-07T01:50:15;39.08;37.51;40.34;;
61270;Laerm;47150;53.032;8.960;2023-05-07T01:52:42;39.09;37.78;40.38;;
61270;Laerm;47150;53.032;8.960;2023-05-07T01:55:07;39.09;37.90;40.33;;
61270;Laerm;47150;53.032;8.960;2023-05-07T01:57:33;39.09;37.74;40.29;;
61270;Laerm;47150;53.032;8.960;2023-05-07T01:59:58;39.08;37.94;40.45;;
61270;Laerm;47150;53.032;8.960;2023-05-07T02:02:23;39.09;37.78;40.19;;
61270;Laerm;47150;53.032;8.960;2023-05-07T02:04:49;39.09;37.90;40.43;;
61270;Laerm;47150;53.032;8.960;2023-05-07T02:07:14;39.09;37.84;40.29;;
61270;Laerm;47150;53.032;8.960;2023-05-07T02:09:39;39.09;37.72;40.32;;
61270;Laerm;47150;53.032;8.960;2023-05-07T02:12:05;39.09;37.71;40.57;;
61270;Laerm;47150;53.032;8.960;2023-05-07T02:14:30;39.10;37.77;40.33;;
61270;Laerm;47150;53.032;8.960;2023-05-07T02:16:56;39.10;37.63;40.27;;
61270;Laerm;47150;53.032;8.960;2023-05-07T02:19:21;39.09;37.71;40.26;;
61270;Laerm;47150;53.032;8.960;2023-05-07T02:21:47;39.10;37.88;40.54;;
61270;Laerm;47150;53.032;8.960;2023-05-07T02:24:13;39.10;37.76;40.28;;
61270;Laerm;47150;53.032;8.960;2023-05-07T02:26:40;39.11;37.53;40.22;;
61270;Laerm;47150;53.032;8.960;2023-05-07T02:29:05;39.10;37.84;40.33;;
61270;Laerm;47150;53.032;8.960;2023-05-07T02:31:30;39.10;37.57;40.38;;
61270;Laerm;47150;53.032;8.960;2023-05-07T02:33:56;39.10;37.87;40.32;;
61270;Laerm;47150;53.032;8.960;2023-05-07T02:36:21;39.11;37.79;40.23;;
61270;Laerm;47150;53.032;8.960;2023-05-07T02:38:48;39.11;37.86;40.26;;
61270;Laerm;47150;53.032;8.960;2023-05-07T02:41:13;39.12;37.45;40.24;;
61270;Laerm;47150;53.032;8.960;2023-05-07T02:43:38;39.11;37.79;40.26;;
61270;Laerm;47150;53.032;8.960;2023-05-07T02:46:08;39.11;37.52;40.20;;
61270;Laerm;47150;53.032;8.960;2023-05-07T02:48:34;39.10;37.72;40.37;;
61270;Laerm;47150;53.032;8.960;2023-05-07T02:51:00;39.11;37.73;40.27;;
61270;Laerm;47150;53.032;8.960;2023-05-07T02:53:26;39.10;37.75;40.34;;
61270;Laerm;47150;53.032;8.960;2023-05-07T02:55:56;39.09;37.71;40.32;;
61270;Laerm;47150;53.032;8.960;2023-05-07T02:58:22;39.10;37.71;40.29;;
61270;Laerm;47150;53.032;8.960;2023-05-07T03:00:47;39.09;37.74;40.62;;
61270;Laerm;47150;53.032;8.960;2023-05-07T03:03:14;39.10;37.80;40.33;;
61270;Laerm;47150;53.032;8.960;2023-05-07T03:05:39;39.10;37.76;40.47;;
61270;Laerm;47150;53.032;8.960;2023-05-07T03:08:05;39.09;37.88;40.37;;
61270;Laerm;47150;53.032;8.960;2023-05-07T03:10:30;39.09;37.71;40.36;;
61270;Laerm;47150;53.032;8.960;2023-05-07T03:12:56;39.09;37.89;40.07;;
61270;Laerm;47150;53.032;8.960;2023-05-07T03:15:21;39.09;37.58;40.51;;
61270;Laerm;47150;53.032;8.960;2023-05-07T03:17:47;39.08;37.86;40.27;;
61270;Laerm;47150;53.032;8.960;2023-05-07T03:20:13;39.09;37.80;40.42;;
61270;Laerm;47150;53.032;8.960;2023-05-07T03:22:38;39.08;37.78;40.13;;
61270;Laerm;47150;53.032;8.960;2023-05-07T03:25:04;39.07;37.70;40.39;;
61270;Laerm;47150;53.032;8.960;2023-05-07T03:27:30;39.07;37.92;40.39;;
61270;Laerm;47150;53.032;8.960;2023-05-07T03:29:55;39.08;37.68;40.16;;
61270;Laerm;47150;53.032;8.960;2023-05-07T03:32:21;39.09;37.68;40.42;;
61270;Laerm;47150;53.032;8.960;2023-05-07T03:34:46;39.08;37.69;40.53;;
61270;Laerm;47150;53.032;8.960;2023-05-07T03:37:11;39.07;37.85;40.38;;
61270;Laerm;47150;53.032;8.960;2023-05-07T03:39:37;39.07;37.59;40.55;;
61270;Laerm;47150;53.032;8.960;2023-05-07T03:42:02;39.07;37.95;40.32;;
61270;Laerm;47150;53.032;8.960;2023-05-07T03:44:28;39.08;37.71;40.14;;
61270;Laerm;47150;53.032;8.960;2023-05-07T03:46:54;39.07;37.78;40.28;;
61270;Laerm;47150;53.032;8.960;2023-05-07T03:49:20;39.07;37.72;40.22;;
61270;Laerm;47150;53.032;8.960;2023-05-07T03:51:46;39.07;37.72;40.48;;
61270;Laerm;47150;53.032;8.960;2023-05-07T03:54:11;39.08;37.47;40.14;;
61270;Laerm;47150;53.032;8.960;2023-05-07T03:56:36;39.07;37.85;40.29;;
61270;Laerm;47150;53.032;8.960;2023-05-07T03:59:02;39.07;37.75;40.31;;
61270;Laerm;47150;53.032;8.960;2023-05-07T04:01:27;39.06;37.72;40.27;;
61270;Laerm;47150;53.032;8.960;2023-05-07T04:03:53;39.07;37.78;40.20;;
61270;Laerm;47150;53.032;8.960;2023-05-07T04:06:18;39.07;37.64;40.34;;
61270;Laerm;47150;53.032;8.960;2023-05-07T04:08:43;39.08;37.67;40.29;;
61270;Laerm;47150;53.032;8.960;2023-05-07T04:11:09;39.07;37.83;40.25;;
61270;Laerm;47150;53.032;8.960;2023-05-07T04:13:34;39.09;37.88;40.40;;
61270;Laerm;47150;53.032;8.960;2023-05-07T04:16:01;39.08;37.63;40.34;;
61270;Laerm;47150;53.032;8.960;2023-05-07T04:18:27;39.07;37.80;40.30;;
61270;Laerm;47150;53.032;8.960;2023-05-07T04:20:53;39.08;37.75;40.32;;
61270;Laerm;47150;53.032;8.960;2023-05-07T04:23:18;39.08;37.68;40.40;;
61270;Laerm;47150;53.032;8.960;2023-05-07T04:25:44;39.08;37.55;40.23;;
61270;Laerm;47150;53.032;8.960;2023-05-07T04:28:10;39.08;37.66;40.40;;
61270;Laerm;47150;53.032;8.960;2023-05-07T04:30:36;39.08;37.84;40.43;;
61270;Laerm;47150;53.032;8.960;2023-05-07T04:33:02;39.09;37.79;40.43;;
61270;Laerm;47150;53.032;8.960;2023-05-07T04:35:27;39.08;38.00;40.28;;
61270;Laerm;47150;53.032;8.960;2023-05-07T04:37:52;39.08;37.83;40.52;;
61270;Laerm;47150;53.032;8.960;2023-05-07T04:40:18;39.10;37.80;40.52;;
61270;Laerm;47150;53.032;8.960;2023-05-07T04:42:43;39.09;37.86;40.16;;
61270;Laerm;47150;53.032;8.960;2023-05-07T04:45:09;39.10;37.80;40.26;;
61270;Laerm;47150;53.032;8.960;2023-05-07T04:47:35;39.10;37.78;40.34;;
61270;Laerm;47150;53.032;8.960;2023-05-07T04:50:01;39.09;37.75;40.16;;
61270;Laerm;47150;53.032;8.960;2023-05-07T04:52:26;39.10;37.60;40.47;;
61270;Laerm;47150;53.032;8.960;2023-05-07T04:54:52;39.11;37.75;40.31;;
61270;Laerm;47150;53.032;8.960;2023-05-07T04:57:17;39.10;37.92;40.38;;
61270;Laerm;47150;53.032;8.960;2023-05-07T04:59:43;39.13;37.57;40.58;;
61270;Laerm;47150;53.032;8.960;2023-05-07T05:02:10;39.14;37.82;40.42;;
61270;Laerm;47150;53.032;8.960;2023-05-07T05:04:35;39.14;37.86;40.68;;
61270;Laerm;47150;53.032;8.960;2023-05-07T05:07:02;39.15;38.00;40.42;;
61270;Laerm;47150;53.032;8.960;2023-05-07T05:09:28;39.15;37.78;40.46;;
61270;Laerm;47150;53.032;8.960;2023-05-07T05:11:54;39.15;37.87;40.30;;
61270;Laerm;47150;53.032;8.960;2023-05-07T05:14:19;39.14;37.83;40.53;;
61270;Laerm;47150;53.032;8.960;2023-05-07T05:16:44;39.15;37.92;40.26;;
61270;Laerm;47150;53.032;8.960;2023-05-07T05:19:10;39.17;38.03;40.45;;
61270;Laerm;47150;53.032;8.960;2023-05-07T05:21:35;39.17;37.90;40.52;;
61270;Laerm;47150;53.032;8.960;2023-05-07T05:24:00;39.16;37.91;40.68;;
61270;Laerm;47150;53.032;8.960;2023-05-07T05:26:26;39.16;37.48;40.38;;
61270;Laerm;47150;53.032;8.960;2023-05-07T05:28:51;39.18;37.62;40.36;;
61270;Laerm;47150;53.032;8.960;2023-05-07T05:31:17;39.17;37.91;40.35;;
61270;Laerm;47150;53.032;8.960;2023-05-07T05:33:42;39.18;37.91;40.42;;
61270;Laerm;47150;53.032;8.960;2023-05-07T05:36:09;39.20;37.97;40.61;;
61270;Laerm;47150;53.032;8.960;2023-05-07T05:38:35;39.19;37.85;40.61;;
61270;Laerm;47150;53.032;8.960;2023-05-07T05:41:00;39.19;37.95;40.33;;
61270;Laerm;47150;53.032;8.960;2023-05-07T05:43:26;39.20;38.01;40.50;;
61270;Laerm;47150;53.032;8.960;2023-05-07T05:45:51;39.21;37.95;40.67;;
61270;Laerm;47150;53.032;8.960;2023-05-07T05:48:16;39.21;37.94;40.83;;
61270;Laerm;47150;53.032;8.960;2023-05-07T05:50:42;39.21;37.99;40.49;;
61270;Laerm;47150;53.032;8.960;2023-05-07T05:53:07;39.22;37.99;40.49;;
61270;Laerm;47150;53.032;8.960;2023-05-07T05:55:33;39.22;37.73;40.39;;
61270;Laerm;47150;53.032;8.960;2023-05-07T05:58:00;39.23;37.78;40.48;;
61270;Laerm;47150;53.032;8.960;2023-05-07T06:00:25;39.24;37.79;40.32;;
61270;Laerm;47150;53.032;8.960;2023-05-07T06:02:51;39.24;37.92;40.41;;
61270;Laerm;47150;53.032;8.960;2023-05-07T06:05:17;39.24;37.85;40.51;;
61270;Laerm;47150;53.032;8.960;2023-05-07T06:07:42;39.24;37.96;40.43;;
61270;Laerm;47150;53.032;8.960;2023-05-07T06:10:07;39.24;38.01;40.80;;
61270;Laerm;47150;53.032;8.960;2023-05-07T06:12:33;39.24;38.02;40.58;;
61270;Laerm;47150;53.032;8.960;2023-05-07T06:14:58;39.24;37.80;40.47;;
61270;Laerm;47150;53.032;8.960;2023-05-07T06:17:24;39.24;37.81;40.38;;
61270;Laerm;47150;53.032;8.960;2023-05-07T06:19:49;39.24;38.08;40.45;;
61270;Laerm;47150;53.032;8.960;2023-05-07T06:22:14;39.25;37.82;40.45;;
61270;Laerm;47150;53.032;8.960;2023-05-07T06:24:40;39.24;37.93;40.39;;
61270;Laerm;47150;53.032;8.960;2023-05-07T06:27:05;39.25;37.92;40.35;;
61270;Laerm;47150;53.032;8.960;2023-05-07T06:29:30;39.24;37.94;40.61;;
61270;Laerm;47150;53.032;8.960;2023-05-07T06:32:07;39.25;37.74;40.91;;
61270;Laerm;47150;53.032;8.960;2023-05-07T06:34:33;39.26;38.03;40.45;;
61270;Laerm;47150;53.032;8.960;2023-05-07T06:36:58;39.26;37.91;40.53;;
61270;Laerm;47150;53.032;8.960;2023-05-07T06:39:23;39.26;37.90;40.53;;
61270;Laerm;47150;53.032;8.960;2023-05-07T06:41:49;39.25;37.84;40.64;;
61270;Laerm;47150;53.032;8.960;2023-05-07T06:44:14;39.25;37.77;40.45;;
61270;Laerm;47150;53.032;8.960;2023-05-07T06:46:40;39.26;37.80;40.49;;
61270;Laerm;47150;53.032;8.960;2023-05-07T06:49:06;39.25;38.00;40.41;;
61270;Laerm;47150;53.032;8.960;2023-05-07T06:51:31;39.25;37.93;40.41;;
61270;Laerm;47150;53.032;8.960;2023-05-07T06:53:56;39.24;38.01;40.38;;
61270;Laerm;47150;53.032;8.960;2023-05-07T06:56:22;39.23;37.84;40.42;;
61270;Laerm;47150;53.032;8.960;2023-05-07T06:58:48;39.22;38.04;40.64;;
61270;Laerm;47150;53.032;8.960;2023-05-07T07:01:13;39.20;37.77;40.58;;
61270;Laerm;47150;53.032;8.960;2023-05-07T07:03:38;39.20;37.97;40.56;;
61270;Laerm;47150;53.032;8.960;2023-05-07T07:06:04;39.18;37.81;40.54;;
61270;Laerm;47150;53.032;8.960;2023-05-07T07:08:29;39.18;37.94;40.51;;
61270;Laerm;47150;53.032;8.960;2023-05-07T07:10:55;39.14;37.66;40.34;;
61270;Laerm;47150;53.032;8.960;2023-05-07T07:13:20;39.15;37.85;40.39;;
61270;Laerm;47150;53.032;8.960;2023-05-07T07:15:45;39.10;37.66;40.44;;
61270;Laerm;47150;53.032;8.960;2023-05-07T07:18:11;39.09;37.70;40.42;;
61270;Laerm;47150;53.032;8.960;2023-05-07T07:20:36;39.07;37.39;40.27;;
61270;Laerm;47150;53.032;8.960;2023-05-07T07:23:01;39.07;37.69;40.46;;
61270;Laerm;47150;53.032;8.960;2023-05-07T07:25:27;39.05;37.81;40.28;;
61270;Laerm;47150;53.032;8.960;2023-05-07T07:27:52;39.02;37.66;40.33;;
61270;Laerm;47150;53.032;8.960;2023-05-07T07:30:17;39.00;37.53;40.31;;
61270;Laerm;47150;53.032;8.960;2023-05-07T07:32:43;38.99;37.81;40.15;;
61270;Laerm;47150;53.032;8.960;2023-05-07T07:35:08;38.98;37.48;40.25;;
61270;Laerm;47150;53.032;8.960;2023-05-07T07:37:34;38.97;37.41;40.15;;
61270;Laerm;47150;53.032;8.960;2023-05-07T07:39:59;38.93;37.73;40.12;;
61270;Laerm;47150;53.032;8.960;2023-05-07T07:42:25;38.92;37.23;40.08;;
61270;Laerm;47150;53.032;8.960;2023-05-07T07:44:50;38.88;37.59;40.10;;
61270;Laerm;47150;53.032;8.960;2023-05-07T07:47:15;38.88;37.59;40.39;;
61270;Laerm;47150;53.032;8.960;2023-05-07T07:49:41;38.86;37.35;40.31;;
61270;Laerm;47150;53.032;8.960;2023-05-07T07:52:06;38.85;37.06;40.22;;
61270;Laerm;47150;53.032;8.960;2023-05-07T07:54:32;38.80;37.27;40.12;;
61270;Laerm;47150;53.032;8.960;2023-05-07T07:56:57;38.81;37.41;40.32;;
61270;Laerm;47150;53.032;8.960;2023-05-07T07:59:23;38.77;37.46;40.15;;
61270;Laerm;47150;53.032;8.960;2023-05-07T08:01:48;38.69;37.25;40.00;;
61270;Laerm;47150;53.032;8.960;2023-05-07T08:04:15;38.62;37.09;39.76;;
61270;Laerm;47150;53.032;8.960;2023-05-07T08:06:40;38.58;37.04;39.96;;
61270;Laerm;47150;53.032;8.960;2023-05-07T08:09:06;38.53;37.29;40.85;;
61270;Laerm;47150;53.032;8.960;2023-05-07T08:11:31;38.47;37.15;39.75;;
61270;Laerm;47150;53.032;8.960;2023-05-07T08:13:57;38.44;36.85;39.92;;
61270;Laerm;47150;53.032;8.960;2023-05-07T08:16:22;38.43;36.73;39.71;;
61270;Laerm;47150;53.032;8.960;2023-05-07T08:18:47;38.44;36.80;39.94;;
61270;Laerm;47150;53.032;8.960;2023-05-07T08:21:13;38.41;36.92;39.79;;
61270;Laerm;47150;53.032;8.960;2023-05-07T08:23:38;38.41;36.91;40.01;;
61270;Laerm;47150;53.032;8.960;2023-05-07T08:26:03;38.43;37.11;39.84;;
61270;Laerm;47150;53.032;8.960;2023-05-07T08:28:29;38.41;37.05;39.62;;
61270;Laerm;47150;53.032;8.960;2023-05-07T08:30:54;38.41;36.84;40.08;;
61270;Laerm;47150;53.032;8.960;2023-05-07T08:33:21;38.42;37.05;39.92;;
61270;Laerm;47150;53.032;8.960;2023-05-07T08:35:47;38.43;37.05;39.66;;
61270;Laerm;47150;53.032;8.960;2023-05-07T08:38:12;38.46;37.05;44.16;;
61270;Laerm;47150;53.032;8.960;2023-05-07T08:40:39;38.48;37.23;39.67;;
61270;Laerm;47150;53.032;8.960;2023-05-07T08:43:06;38.49;37.18;39.74;;
61270;Laerm;47150;53.032;8.960;2023-05-07T08:45:33;38.52;37.16;40.01;;
61270;Laerm;47150;53.032;8.960;2023-05-07T08:48:02;38.54;37.16;40.87;;
61270;Laerm;47150;53.032;8.960;2023-05-07T08:50:28;38.56;37.04;40.08;;
61270;Laerm;47150;53.032;8.960;2023-05-07T08:52:54;38.52;37.22;39.71;;
61270;Laerm;47150;53.032;8.960;2023-05-07T08:55:20;38.51;37.29;39.89;;
61270;Laerm;47150;53.032;8.960;2023-05-07T08:57:45;38.41;37.10;39.76;;
61270;Laerm;47150;53.032;8.960;2023-05-07T09:00:12;38.38;36.90;39.50;;
61270;Laerm;47150;53.032;8.960;2023-05-07T09:02:38;38.40;36.59;39.75;;
61270;Laerm;47150;53.032;8.960;2023-05-07T09:05:03;38.33;36.80;39.64;;
61270;Laerm;47150;53.032;8.960;2023-05-07T09:07:30;38.35;37.15;39.65;;
61270;Laerm;47150;53.032;8.960;2023-05-07T09:09:55;38.33;36.88;39.81;;
61270;Laerm;47150;53.032;8.960;2023-05-07T09:12:22;38.29;36.90;39.53;;
61270;Laerm;47150;53.032;8.960;2023-05-07T09:14:48;38.26;36.65;39.62;;
61270;Laerm;47150;53.032;8.960;2023-05-07T09:17:15;38.21;36.57;39.43;;
61270;Laerm;47150;53.032;8.960;2023-05-07T09:19:41;38.18;36.87;39.46;;
61270;Laerm;47150;53.032;8.960;2023-05-07T09:22:08;38.18;36.68;40.14;;
61270;Laerm;47150;53.032;8.960;2023-05-07T09:24:33;38.20;36.79;39.72;;
61270;Laerm;47150;53.032;8.960;2023-05-07T09:27:01;38.20;36.84;40.32;;
61270;Laerm;47150;53.032;8.960;2023-05-07T09:29:28;38.16;36.87;39.78;;
61270;Laerm;47150;53.032;8.960;2023-05-07T09:31:55;38.17;36.76;39.81;;
61270;Laerm;47150;53.032;8.960;2023-05-07T09:34:21;38.22;36.79;42.29;;
61270;Laerm;47150;53.032;8.960;2023-05-07T09:36:46;38.16;36.80;39.70;;
61270;Laerm;47150;53.032;8.960;2023-05-07T09:39:12;38.12;36.66;39.44;;
61270;Laerm;47150;53.032;8.960;2023-05-07T09:41:45;38.07;36.79;39.41;;
61270;Laerm;47150;53.032;8.960;2023-05-07T09:44:11;38.08;36.68;41.74;;
61270;Laerm;47150;53.032;8.960;2023-05-07T09:46:38;38.13;36.66;39.63;;
61270;Laerm;47150;53.032;8.960;2023-05-07T09:49:06;38.07;36.55;39.29;;
61270;Laerm;47150;53.032;8.960;2023-05-07T09:51:39;38.02;36.78;39.35;;
61270;Laerm;47150;53.032;8.960;2023-05-07T09:54:07;37.92;36.68;39.09;;
61270;Laerm;47150;53.032;8.960;2023-05-07T09:56:33;37.87;36.62;39.17;;
61270;Laerm;47150;53.032;8.960;2023-05-07T09:59:00;37.86;36.50;39.20;;
61270;Laerm;47150;53.032;8.960;2023-05-07T10:01:25;37.80;36.23;39.13;;
61270;Laerm;47150;53.032;8.960;2023-05-07T10:03:52;37.73;36.24;39.11;;
61270;Laerm;47150;53.032;8.960;2023-05-07T10:06:19;37.77;36.38;39.28;;
61270;Laerm;47150;53.032;8.960;2023-05-07T10:08:45;37.73;36.14;40.56;;
61270;Laerm;47150;53.032;8.960;2023-05-07T10:11:11;37.82;36.34;39.09;;
61270;Laerm;47150;53.032;8.960;2023-05-07T10:13:37;37.85;36.57;41.21;;
61270;Laerm;47150;53.032;8.960;2023-05-07T10:16:04;37.85;36.46;39.33;;
61270;Laerm;47150;53.032;8.960;2023-05-07T10:18:33;37.89;36.44;42.20;;
61270;Laerm;47150;53.032;8.960;2023-05-07T10:21:08;37.83;36.40;39.22;;
61270;Laerm;47150;53.032;8.960;2023-05-07T10:23:34;37.79;36.56;39.13;;
61270;Laerm;47150;53.032;8.960;2023-05-07T10:26:02;37.81;36.32;39.18;;
61270;Laerm;47150;53.032;8.960;2023-05-07T10:28:31;37.88;36.50;39.26;;
61270;Laerm;47150;53.032;8.960;2023-05-07T10:31:21;37.89;36.00;39.10;;
61270;Laerm;47150;53.032;8.960;2023-05-07T10:33:51;37.91;36.31;39.16;;
61270;Laerm;47150;53.032;8.960;2023-05-07T10:36:18;37.90;36.60;39.21;;
61270;Laerm;47150;53.032;8.960;2023-05-07T10:38:45;37.88;36.41;39.09;;
61270;Laerm;47150;53.032;8.960;2023-05-07T10:41:11;37.94;36.62;39.26;;
61270;Laerm;47150;53.032;8.960;2023-05-07T10:43:44;37.98;36.54;39.47;;
61270;Laerm;47150;53.032;8.960;2023-05-07T10:51:34;37.91;36.60;39.22;;
61270;Laerm;47150;53.032;8.960;2023-05-07T10:56:35;37.86;36.47;39.29;;
61270;Laerm;47150;53.032;8.960;2023-05-07T11:04:22;37.57;36.22;38.82;;
61270;Laerm;47150;53.032;8.960;2023-05-07T11:12:16;37.34;36.05;38.73;;
61270;Laerm;47150;53.032;8.960;2023-05-07T11:17:08;37.38;35.76;39.13;;
61270;Laerm;47150;53.032;8.960;2023-05-07T11:19:54;37.58;36.22;38.83;;
61270;Laerm;47150;53.032;8.960;2023-05-07T11:25:07;38.00;36.60;39.28;;
61270;Laerm;47150;53.032;8.960;2023-05-07T11:27:33;38.03;36.74;39.16;;
61270;Laerm;47150;53.032;8.960;2023-05-07T11:29:59;37.75;36.28;39.39;;
61270;Laerm;47150;53.032;8.960;2023-05-07T11:32:28;37.69;36.17;39.30;;
61270;Laerm;47150;53.032;8.960;2023-05-07T11:34:55;37.67;36.23;39.01;;
61270;Laerm;47150;53.032;8.960;2023-05-07T11:37:21;37.63;36.22;39.11;;
61270;Laerm;47150;53.032;8.960;2023-05-07T11:39:47;37.45;35.96;39.42;;
61270;Laerm;47150;53.032;8.960;2023-05-07T11:42:29;37.13;35.70;38.54;;
61270;Laerm;47150;53.032;8.960;2023-05-07T11:44:55;36.98;35.53;38.30;;
61270;Laerm;47150;53.032;8.960;2023-05-07T11:47:21;36.88;35.29;38.67;;
61270;Laerm;47150;53.032;8.960;2023-05-07T11:49:50;36.76;34.97;38.04;;
61270;Laerm;47150;53.032;8.960;2023-05-07T11:52:18;36.72;34.94;37.94;;
61270;Laerm;47150;53.032;8.960;2023-05-07T11:54:50;36.65;35.28;40.64;;
61270;Laerm;47150;53.032;8.960;2023-05-07T11:57:16;36.63;35.25;38.00;;
61270;Laerm;47150;53.032;8.960;2023-05-07T11:59:42;36.73;35.34;44.91;;
61270;Laerm;47150;53.032;8.960;2023-05-07T12:02:10;36.74;35.41;38.16;;
61270;Laerm;47150;53.032;8.960;2023-05-07T12:04:35;36.73;35.32;37.88;;
61270;Laerm;47150;53.032;8.960;2023-05-07T12:07:01;36.89;35.55;48.22;;
61270;Laerm;47150;53.032;8.960;2023-05-07T12:09:26;36.72;35.27;38.59;;
61270;Laerm;47150;53.032;8.960;2023-05-07T12:11:52;36.79;35.11;41.91;;
61270;Laerm;47150;53.032;8.960;2023-05-07T12:14:18;36.77;35.37;38.55;;
61270;Laerm;47150;53.032;8.960;2023-05-07T12:16:44;36.86;35.47;44.28;;
61270;Laerm;47150;53.032;8.960;2023-05-07T12:19:10;36.78;35.42;38.05;;
61270;Laerm;47150;53.032;8.960;2023-05-07T12:21:38;36.76;35.33;38.16;;
61270;Laerm;47150;53.032;8.960;2023-05-07T12:24:04;36.76;34.85;38.22;;
61270;Laerm;47150;53.032;8.960;2023-05-07T12:26:30;36.83;35.37;38.30;;
61270;Laerm;47150;53.032;8.960;2023-05-07T12:28:57;36.80;35.48;41.95;;
61270;Laerm;47150;53.032;8.960;2023-05-07T12:31:22;36.79;35.24;38.36;;
61270;Laerm;47150;53.032;8.960;2023-05-07T12:33:48;36.89;35.48;40.62;;
61270;Laerm;47150;53.032;8.960;2023-05-07T12:36:13;36.91;35.55;38.16;;
61270;Laerm;47150;53.032;8.960;2023-05-07T12:38:39;36.90;35.13;38.24;;
61270;Laerm;47150;53.032;8.960;2023-05-07T12:41:07;36.89;35.56;38.22;;
61270;Laerm;47150;53.032;8.960;2023-05-07T12:43:33;36.91;35.35;38.24;;
61270;Laerm;47150;53.032;8.960;2023-05-07T12:46:06;36.90;35.21;38.43;;
61270;Laerm;47150;53.032;8.960;2023-05-07T12:48:32;36.98;35.47;38.29;;
61270;Laerm;47150;53.032;8.960;2023-05-07T12:50:59;37.09;35.66;38.64;;
61270;Laerm;47150;53.032;8.960;2023-05-07T12:53:26;37.01;35.40;38.61;;
61270;Laerm;47150;53.032;8.960;2023-05-07T12:55:54;37.09;35.64;38.57;;
61270;Laerm;47150;53.032;8.960;2023-05-07T12:58:30;37.14;35.68;38.83;;
61270;Laerm;47150;53.032;8.960;2023-05-07T13:00:59;37.18;35.61;38.38;;
61270;Laerm;47150;53.032;8.960;2023-05-07T13:03:32;37.17;35.87;38.61;;
61270;Laerm;47150;53.032;8.960;2023-05-07T13:06:00;37.11;35.68;38.40;;
61270;Laerm;47150;53.032;8.960;2023-05-07T13:08:31;37.07;35.51;39.64;;
61270;Laerm;47150;53.032;8.960;2023-05-07T13:10:58;37.10;35.67;48.14;;
61270;Laerm;47150;53.032;8.960;2023-05-07T13:13:24;37.05;35.43;38.40;;
61270;Laerm;47150;53.032;8.960;2023-05-07T13:15:50;37.03;35.35;38.27;;
61270;Laerm;47150;53.032;8.960;2023-05-07T13:18:15;36.95;35.50;38.25;;
61270;Laerm;47150;53.032;8.960;2023-05-07T13:20:41;36.93;35.43;38.21;;
61270;Laerm;47150;53.032;8.960;2023-05-07T13:23:06;36.82;35.39;38.11;;
61270;Laerm;47150;53.032;8.960;2023-05-07T13:25:31;36.83;35.27;38.15;;
61270;Laerm;47150;53.032;8.960;2023-05-07T13:27:57;36.78;35.39;38.21;;
61270;Laerm;47150;53.032;8.960;2023-05-07T13:30:23;36.74;35.27;38.25;;
61270;Laerm;47150;53.032;8.960;2023-05-07T13:32:48;36.70;35.15;38.09;;
61270;Laerm;47150;53.032;8.960;2023-05-07T13:35:14;36.55;35.00;46.23;;
61270;Laerm;47150;53.032;8.960;2023-05-07T13:37:40;36.53;35.19;38.41;;
61270;Laerm;47150;53.032;8.960;2023-05-07T13:40:07;36.53;34.92;38.49;;
61270;Laerm;47150;53.032;8.960;2023-05-07T13:42:32;36.45;35.16;38.16;;
61270;Laerm;47150;53.032;8.960;2023-05-07T13:44:58;36.45;34.99;43.02;;
61270;Laerm;47150;53.032;8.960;2023-05-07T13:47:23;36.30;34.77;39.28;;
61270;Laerm;47150;53.032;8.960;2023-05-07T13:49:49;36.30;34.93;37.77;;
61270;Laerm;47150;53.032;8.960;2023-05-07T13:52:17;36.15;34.64;38.18;;
61270;Laerm;47150;53.032;8.960;2023-05-07T13:54:42;36.20;34.42;47.14;;
61270;Laerm;47150;53.032;8.960;2023-05-07T13:57:08;36.15;34.73;41.29;;
61270;Laerm;47150;53.032;8.960;2023-05-07T13:59:33;36.07;34.39;42.47;;
61270;Laerm;47150;53.032;8.960;2023-05-07T14:01:59;36.01;34.58;37.77;;